createdAt,value
2022-09-20T00:00:16.830Z,7.11
2022-09-20T00:01:06.903Z,7.15
2022-09-20T00:01:56.822Z,7.18
2022-09-20T00:02:46.809Z,7.19
2022-09-20T00:03:36.791Z,7.19
2022-09-20T00:04:26.829Z,7.21
2022-09-20T00:05:16.895Z,7.19
2022-09-20T00:06:06.769Z,7.18
2022-09-20T00:06:56.763Z,7.16
2022-09-20T00:07:46.766Z,7.15
2022-09-20T00:08:36.740Z,7.15
2022-09-20T00:09:26.739Z,7.12
2022-09-20T00:10:16.744Z,7.14
2022-09-20T00:11:06.725Z,7.14
2022-09-20T00:11:56.710Z,7.15
2022-09-20T00:12:46.703Z,7.15
2022-09-20T00:13:36.680Z,7.15
2022-09-20T00:14:26.673Z,7.15
2022-09-20T00:15:16.688Z,7.16
2022-09-20T00:16:06.750Z,7.16
2022-09-20T00:16:56.710Z,7.15
2022-09-20T00:17:46.637Z,7.15
2022-09-20T00:18:36.628Z,7.15
2022-09-20T00:19:26.629Z,7.12
2022-09-20T00:20:16.607Z,7.11
2022-09-20T00:21:06.612Z,7.11
2022-09-20T00:21:56.618Z,7.09
2022-09-20T00:22:46.586Z,7.09
2022-09-20T00:23:36.568Z,7.09
2022-09-20T00:24:26.568Z,7.09
2022-09-20T00:25:16.597Z,7.08
2022-09-20T00:26:06.566Z,7.07
2022-09-20T00:26:56.546Z,7.09
2022-09-20T00:27:46.585Z,7.08
2022-09-20T00:28:36.777Z,7.08
2022-09-20T00:29:26.542Z,7.08
2022-09-20T00:30:16.514Z,7.08
2022-09-20T00:31:06.516Z,7.08
2022-09-20T00:31:56.555Z,7.08
2022-09-20T00:32:46.505Z,7.07
2022-09-20T00:33:36.462Z,7.07
2022-09-20T00:34:26.465Z,7.07
2022-09-20T00:35:16.484Z,7.07
2022-09-20T00:36:06.453Z,7.01
2022-09-20T00:36:56.425Z,7.00
2022-09-20T00:37:46.426Z,7.01
2022-09-20T00:38:36.453Z,7.01
2022-09-20T00:39:26.413Z,7.01
2022-09-20T00:40:16.431Z,6.99
2022-09-20T00:41:06.392Z,6.97
2022-09-20T00:41:56.375Z,6.96
2022-09-20T00:42:46.365Z,6.97
2022-09-20T00:43:36.360Z,6.97
2022-09-20T00:44:26.421Z,6.99
2022-09-20T00:45:16.354Z,6.97
2022-09-20T00:46:06.490Z,6.99
2022-09-20T00:46:56.333Z,6.97
2022-09-20T00:47:46.306Z,6.97
2022-09-20T00:48:36.339Z,6.96
2022-09-20T00:49:26.297Z,6.97
2022-09-20T00:50:16.294Z,6.97
2022-09-20T00:51:06.276Z,6.97
2022-09-20T00:51:56.266Z,6.96
2022-09-20T00:52:46.251Z,6.94
2022-09-20T00:53:36.265Z,6.93
2022-09-20T00:54:26.272Z,6.93
2022-09-20T00:55:16.286Z,6.91
2022-09-20T00:56:06.213Z,6.90
2022-09-20T00:56:56.211Z,6.87
2022-09-20T00:57:46.204Z,6.86
2022-09-20T00:58:36.192Z,6.82
2022-09-20T00:59:26.191Z,6.82
2022-09-20T01:00:16.202Z,6.81
2022-09-20T01:01:06.199Z,6.78
2022-09-20T01:01:56.186Z,6.78
2022-09-20T01:02:46.218Z,6.79
2022-09-20T01:03:36.132Z,6.78
2022-09-20T01:04:26.133Z,6.78
2022-09-20T01:05:16.112Z,6.79
2022-09-20T01:06:06.132Z,6.79
2022-09-20T01:06:56.098Z,6.79
2022-09-20T01:07:46.098Z,6.78
2022-09-20T01:08:36.071Z,6.81
2022-09-20T01:09:26.071Z,6.81
2022-09-20T01:10:16.064Z,6.81
2022-09-20T01:11:06.057Z,6.79
2022-09-20T01:11:56.081Z,6.78
2022-09-20T01:12:46.273Z,6.75
2022-09-20T01:13:36.041Z,6.75
2022-09-20T01:14:26.032Z,6.78
2022-09-20T01:15:16.049Z,6.78
2022-09-20T01:16:06.066Z,6.78
2022-09-20T01:16:56.023Z,6.79
2022-09-20T01:17:46.005Z,6.78
2022-09-20T01:18:35.998Z,6.78
2022-09-20T01:19:25.979Z,6.79
2022-09-20T01:20:15.979Z,6.78
2022-09-20T01:21:05.947Z,6.75
2022-09-20T01:21:55.946Z,6.72
2022-09-20T01:22:45.919Z,6.69
2022-09-20T01:23:35.920Z,6.69
2022-09-20T01:24:25.918Z,6.65
2022-09-20T01:25:15.929Z,6.63
2022-09-20T01:26:05.910Z,6.61
2022-09-20T01:26:55.887Z,6.58
2022-09-20T01:27:45.869Z,6.58
2022-09-20T01:28:35.856Z,6.55
2022-09-20T01:29:25.863Z,6.54
2022-09-20T01:30:16.059Z,6.54
2022-09-20T01:31:05.837Z,6.55
2022-09-20T01:31:55.880Z,6.54
2022-09-20T01:32:45.825Z,6.54
2022-09-20T01:33:35.798Z,6.51
2022-09-20T01:34:25.801Z,6.51
2022-09-20T01:35:15.827Z,6.53
2022-09-20T01:36:05.799Z,6.53
2022-09-20T01:36:55.778Z,6.53
2022-09-20T01:37:45.799Z,6.54
2022-09-20T01:38:35.756Z,6.58
2022-09-20T01:39:25.758Z,6.61
2022-09-20T01:40:15.795Z,6.60
2022-09-20T01:41:05.716Z,6.58
2022-09-20T01:41:55.948Z,6.57
2022-09-20T01:42:45.706Z,6.57
2022-09-20T01:43:35.692Z,6.53
2022-09-20T01:44:25.696Z,6.46
2022-09-20T01:45:15.694Z,6.45
2022-09-20T01:46:05.738Z,6.46
2022-09-20T01:46:55.659Z,6.45
2022-09-20T01:47:45.707Z,6.46
2022-09-20T01:48:35.641Z,6.46
2022-09-20T01:49:25.633Z,6.48
2022-09-20T01:50:15.622Z,6.48
2022-09-20T01:51:05.614Z,6.48
2022-09-20T01:51:55.605Z,6.48
2022-09-20T01:52:45.605Z,6.46
2022-09-20T01:53:36.838Z,6.45
2022-09-20T01:54:25.594Z,6.40
2022-09-20T01:55:15.590Z,6.42
2022-09-20T01:56:05.553Z,6.39
2022-09-20T01:56:55.554Z,6.39
2022-09-20T01:57:45.588Z,6.40
2022-09-20T01:58:35.540Z,6.42
2022-09-20T01:59:25.818Z,6.40
2022-09-20T02:00:15.502Z,6.42
2022-09-20T02:01:05.589Z,6.42
2022-09-20T02:01:55.565Z,6.43
2022-09-20T02:02:45.547Z,6.46
2022-09-20T02:03:35.482Z,6.45
2022-09-20T02:04:25.480Z,6.45
2022-09-20T02:05:15.703Z,6.42
2022-09-20T02:06:05.445Z,6.42
2022-09-20T02:06:55.445Z,6.42
2022-09-20T02:07:45.434Z,6.42
2022-09-20T02:08:35.414Z,6.42
2022-09-20T02:09:25.415Z,6.36
2022-09-20T02:10:15.411Z,6.35
2022-09-20T02:11:06.452Z,6.33
2022-09-20T02:11:55.383Z,6.35
2022-09-20T02:12:45.372Z,6.35
2022-09-20T02:13:35.360Z,6.36
2022-09-20T02:14:25.352Z,6.36
2022-09-20T02:15:15.390Z,6.35
2022-09-20T02:16:05.340Z,6.32
2022-09-20T02:16:55.393Z,6.30
2022-09-20T02:17:45.333Z,6.30
2022-09-20T02:18:35.322Z,6.28
2022-09-20T02:19:25.292Z,6.27
2022-09-20T02:20:15.286Z,6.28
2022-09-20T02:21:05.284Z,6.27
2022-09-20T02:21:55.271Z,6.28
2022-09-20T02:22:45.283Z,6.30
2022-09-20T02:23:35.255Z,6.28
2022-09-20T02:24:25.452Z,6.30
2022-09-20T02:25:15.264Z,6.30
2022-09-20T02:26:05.221Z,6.32
2022-09-20T02:26:55.219Z,6.32
2022-09-20T02:27:45.204Z,6.33
2022-09-20T02:28:35.194Z,6.33
2022-09-20T02:29:25.206Z,6.32
2022-09-20T02:30:15.380Z,6.30
2022-09-20T02:31:05.164Z,6.33
2022-09-20T02:31:55.226Z,6.33
2022-09-20T02:32:45.161Z,6.30
2022-09-20T02:33:35.145Z,6.30
2022-09-20T02:34:25.144Z,6.30
2022-09-20T02:35:15.150Z,6.28
2022-09-20T02:36:05.161Z,6.24
2022-09-20T02:36:55.111Z,6.24
2022-09-20T02:37:45.107Z,6.21
2022-09-20T02:38:35.108Z,6.20
2022-09-20T02:39:25.082Z,6.20
2022-09-20T02:40:15.115Z,6.21
2022-09-20T02:41:05.061Z,6.19
2022-09-20T02:41:55.251Z,6.17
2022-09-20T02:42:45.038Z,6.16
2022-09-20T02:43:35.040Z,6.14
2022-09-20T02:44:25.012Z,6.16
2022-09-20T02:45:15.059Z,6.14
2022-09-20T02:46:05.102Z,6.17
2022-09-20T02:46:55.045Z,6.16
2022-09-20T02:47:45.016Z,6.16
2022-09-20T02:48:34.977Z,6.14
2022-09-20T02:49:24.982Z,6.14
2022-09-20T02:50:14.961Z,6.10
2022-09-20T02:51:04.938Z,6.13
2022-09-20T02:51:54.939Z,6.11
2022-09-20T02:52:44.927Z,6.11
2022-09-20T02:53:34.977Z,6.11
2022-09-20T02:54:24.930Z,6.11
2022-09-20T02:55:14.904Z,6.10
2022-09-20T02:56:04.896Z,6.10
2022-09-20T02:56:54.896Z,6.10
2022-09-20T02:57:44.880Z,6.13
2022-09-20T02:58:34.870Z,6.16
2022-09-20T02:59:24.893Z,6.14
2022-09-20T03:00:14.846Z,6.14
2022-09-20T03:01:04.888Z,6.13
2022-09-20T03:01:54.890Z,6.16
2022-09-20T03:02:44.881Z,6.16
2022-09-20T03:03:34.826Z,6.16
2022-09-20T03:04:24.805Z,6.14
2022-09-20T03:05:14.863Z,6.11
2022-09-20T03:06:04.793Z,6.08
2022-09-20T03:06:54.821Z,6.06
2022-09-20T03:07:44.766Z,6.05
2022-09-20T03:08:34.764Z,6.05
2022-09-20T03:09:24.755Z,6.02
2022-09-20T03:10:14.741Z,5.99
2022-09-20T03:11:06.413Z,5.99
2022-09-20T03:11:54.724Z,5.99
2022-09-20T03:12:44.721Z,6.01
2022-09-20T03:13:34.704Z,6.02
2022-09-20T03:14:24.685Z,6.01
2022-09-20T03:15:14.685Z,6.02
2022-09-20T03:16:04.709Z,5.99
2022-09-20T03:16:54.754Z,5.99
2022-09-20T03:17:44.653Z,5.98
2022-09-20T03:18:34.655Z,5.98
2022-09-20T03:19:24.634Z,5.95
2022-09-20T03:20:14.630Z,5.96
2022-09-20T03:21:04.635Z,6.02
2022-09-20T03:21:54.622Z,6.02
2022-09-20T03:22:44.623Z,6.01
2022-09-20T03:23:34.604Z,5.99
2022-09-20T03:24:24.579Z,5.95
2022-09-20T03:25:14.586Z,5.92
2022-09-20T03:26:04.561Z,5.88
2022-09-20T03:26:54.552Z,5.88
2022-09-20T03:27:44.543Z,5.90
2022-09-20T03:28:34.742Z,5.85
2022-09-20T03:29:24.534Z,5.84
2022-09-20T03:30:14.523Z,5.87
2022-09-20T03:31:04.511Z,5.85
2022-09-20T03:31:54.619Z,5.87
2022-09-20T03:32:44.480Z,5.90
2022-09-20T03:33:34.671Z,5.90
2022-09-20T03:34:24.471Z,5.93
2022-09-20T03:35:14.470Z,5.90
2022-09-20T03:36:04.459Z,5.92
2022-09-20T03:36:54.440Z,5.90
2022-09-20T03:37:44.431Z,5.90
2022-09-20T03:38:34.420Z,5.92
2022-09-20T03:39:24.441Z,5.92
2022-09-20T03:40:14.451Z,5.92
2022-09-20T03:41:04.401Z,5.92
2022-09-20T03:41:54.394Z,5.92
2022-09-20T03:42:44.380Z,5.90
2022-09-20T03:43:34.381Z,5.90
2022-09-20T03:44:24.374Z,5.88
2022-09-20T03:45:14.378Z,5.88
2022-09-20T03:46:04.448Z,5.87
2022-09-20T03:46:54.368Z,5.88
2022-09-20T03:47:44.328Z,5.87
2022-09-20T03:48:34.333Z,5.87
2022-09-20T03:49:24.298Z,5.85
2022-09-20T03:50:14.301Z,5.84
2022-09-20T03:51:04.310Z,5.84
2022-09-20T03:51:54.290Z,5.83
2022-09-20T03:52:44.267Z,5.84
2022-09-20T03:53:34.257Z,5.84
2022-09-20T03:54:24.251Z,5.84
2022-09-20T03:55:14.264Z,5.84
2022-09-20T03:56:05.918Z,5.83
2022-09-20T03:56:54.217Z,5.81
2022-09-20T03:57:44.208Z,5.80
2022-09-20T03:58:34.205Z,5.77
2022-09-20T03:59:24.213Z,5.77
2022-09-20T04:00:14.236Z,5.77
2022-09-20T04:01:04.213Z,5.77
2022-09-20T04:01:54.227Z,5.75
2022-09-20T04:02:44.229Z,5.77
2022-09-20T04:03:34.155Z,5.77
2022-09-20T04:04:24.136Z,5.77
2022-09-20T04:05:14.135Z,5.75
2022-09-20T04:06:04.122Z,5.75
2022-09-20T04:06:54.116Z,5.77
2022-09-20T04:07:44.130Z,5.75
2022-09-20T04:08:38.080Z,5.73
2022-09-20T04:09:25.108Z,5.69
2022-09-20T04:10:14.084Z,5.66
2022-09-20T04:11:04.070Z,5.65
2022-09-20T04:11:54.065Z,5.65
2022-09-20T04:12:44.077Z,5.66
2022-09-20T04:13:34.043Z,5.67
2022-09-20T04:14:24.036Z,5.66
2022-09-20T04:15:14.050Z,5.66
2022-09-20T04:16:04.021Z,5.67
2022-09-20T04:16:54.073Z,5.69
2022-09-20T04:17:43.999Z,5.66
2022-09-20T04:18:34.213Z,5.66
2022-09-20T04:19:23.975Z,5.67
2022-09-20T04:20:13.975Z,5.67
2022-09-20T04:21:03.953Z,5.67
2022-09-20T04:21:53.964Z,5.66
2022-09-20T04:22:44.188Z,5.67
2022-09-20T04:23:33.942Z,5.67
2022-09-20T04:24:23.951Z,5.67
2022-09-20T04:25:13.933Z,5.67
2022-09-20T04:26:03.943Z,5.66
2022-09-20T04:26:53.897Z,5.67
2022-09-20T04:27:43.903Z,5.67
2022-09-20T04:28:33.891Z,5.63
2022-09-20T04:29:23.871Z,5.62
2022-09-20T04:30:13.894Z,5.62
2022-09-20T04:31:03.859Z,5.60
2022-09-20T04:31:54.380Z,5.60
2022-09-20T04:32:43.831Z,5.60
2022-09-20T04:33:33.825Z,5.62
2022-09-20T04:34:23.821Z,5.62
2022-09-20T04:35:13.821Z,5.60
2022-09-20T04:36:04.020Z,5.63
2022-09-20T04:36:53.790Z,5.63
2022-09-20T04:37:43.770Z,5.62
2022-09-20T04:38:33.777Z,5.62
2022-09-20T04:39:23.751Z,5.63
2022-09-20T04:40:13.826Z,5.63
2022-09-20T04:41:03.737Z,5.62
2022-09-20T04:41:53.759Z,5.62
2022-09-20T04:42:43.759Z,5.63
2022-09-20T04:43:33.720Z,5.63
2022-09-20T04:44:23.699Z,5.62
2022-09-20T04:45:13.699Z,5.63
2022-09-20T04:46:03.725Z,5.62
2022-09-20T04:46:56.019Z,5.60
2022-09-20T04:47:43.659Z,5.58
2022-09-20T04:48:33.677Z,5.56
2022-09-20T04:49:23.646Z,5.55
2022-09-20T04:50:13.638Z,5.55
2022-09-20T04:51:03.629Z,5.55
2022-09-20T04:51:53.828Z,5.51
2022-09-20T04:52:43.604Z,5.51
2022-09-20T04:53:33.599Z,5.51
2022-09-20T04:54:23.587Z,5.52
2022-09-20T04:55:13.598Z,5.51
2022-09-20T04:56:03.599Z,5.52
2022-09-20T04:56:53.564Z,5.51
2022-09-20T04:57:43.791Z,5.49
2022-09-20T04:58:33.543Z,5.49
2022-09-20T04:59:23.537Z,5.47
2022-09-20T05:00:13.528Z,5.45
2022-09-20T05:01:03.589Z,5.47
2022-09-20T05:01:53.539Z,5.48
2022-09-20T05:02:43.570Z,5.48
2022-09-20T05:03:33.532Z,5.48
2022-09-20T05:04:23.487Z,5.47
2022-09-20T05:05:13.476Z,5.45
2022-09-20T05:06:03.461Z,5.44
2022-09-20T05:06:53.457Z,5.42
2022-09-20T05:07:43.452Z,5.42
2022-09-20T05:08:33.444Z,5.40
2022-09-20T05:09:23.464Z,5.40
2022-09-20T05:10:13.425Z,5.40
2022-09-20T05:11:03.412Z,5.38
2022-09-20T05:11:53.403Z,5.37
2022-09-20T05:12:43.391Z,5.35
2022-09-20T05:13:33.387Z,5.32
2022-09-20T05:14:23.395Z,5.32
2022-09-20T05:15:13.462Z,5.30
2022-09-20T05:16:03.410Z,5.29
2022-09-20T05:16:53.390Z,5.27
2022-09-20T05:17:43.343Z,5.26
2022-09-20T05:18:33.326Z,5.26
2022-09-20T05:19:23.312Z,5.24
2022-09-20T05:20:13.304Z,5.26
2022-09-20T05:21:03.358Z,5.24
2022-09-20T05:21:53.285Z,5.26
2022-09-20T05:22:43.494Z,5.27
2022-09-20T05:23:33.281Z,5.26
2022-09-20T05:24:23.261Z,5.26
2022-09-20T05:25:13.273Z,5.29
2022-09-20T05:26:03.306Z,5.29
2022-09-20T05:26:53.239Z,5.29
2022-09-20T05:27:43.215Z,5.29
2022-09-20T05:28:33.223Z,5.32
2022-09-20T05:29:23.201Z,5.33
2022-09-20T05:30:13.223Z,5.30
2022-09-20T05:31:03.181Z,5.30
2022-09-20T05:31:53.225Z,5.32
2022-09-20T05:32:43.163Z,5.32
2022-09-20T05:33:33.159Z,5.32
2022-09-20T05:34:23.142Z,5.32
2022-09-20T05:35:13.144Z,5.32
2022-09-20T05:36:03.131Z,5.30
2022-09-20T05:36:53.127Z,5.30
2022-09-20T05:37:43.141Z,5.32
2022-09-20T05:38:33.103Z,5.30
2022-09-20T05:39:23.101Z,5.30
2022-09-20T05:40:13.133Z,5.26
2022-09-20T05:41:03.081Z,5.26
2022-09-20T05:41:53.059Z,5.24
2022-09-20T05:42:43.096Z,5.23
2022-09-20T05:43:33.068Z,5.24
2022-09-20T05:44:23.047Z,5.26
2022-09-20T05:45:13.035Z,5.27
2022-09-20T05:46:03.089Z,5.24
2022-09-20T05:46:53.007Z,5.23
2022-09-20T05:47:42.999Z,5.22
2022-09-20T05:48:32.989Z,5.19
2022-09-20T05:49:23.041Z,5.20
2022-09-20T05:50:12.967Z,5.23
2022-09-20T05:51:03.772Z,5.24
2022-09-20T05:51:52.960Z,5.26
2022-09-20T05:52:42.957Z,5.24
2022-09-20T05:53:32.928Z,5.24
2022-09-20T05:54:22.948Z,5.24
2022-09-20T05:55:13.188Z,5.24
2022-09-20T05:56:02.918Z,5.27
2022-09-20T05:56:52.898Z,5.27
2022-09-20T05:57:42.888Z,5.26
2022-09-20T05:58:32.877Z,5.30
2022-09-20T05:59:22.885Z,5.33
2022-09-20T06:00:12.863Z,5.32
2022-09-20T06:01:02.980Z,5.37
2022-09-20T06:01:52.893Z,5.37
2022-09-20T06:02:42.837Z,5.40
2022-09-20T06:03:32.827Z,5.41
2022-09-20T06:04:22.851Z,5.38
2022-09-20T06:05:12.808Z,5.37
2022-09-20T06:06:02.798Z,5.37
2022-09-20T06:06:52.815Z,5.35
2022-09-20T06:07:42.803Z,5.33
2022-09-20T06:08:32.796Z,5.33
2022-09-20T06:09:22.766Z,5.33
2022-09-20T06:10:12.745Z,5.30
2022-09-20T06:11:02.750Z,5.30
2022-09-20T06:11:52.735Z,5.32
2022-09-20T06:12:42.743Z,5.30
2022-09-20T06:13:32.714Z,5.32
2022-09-20T06:14:22.915Z,5.32
2022-09-20T06:15:12.703Z,5.33
2022-09-20T06:16:02.697Z,5.33
2022-09-20T06:16:52.751Z,5.37
2022-09-20T06:17:42.874Z,5.37
2022-09-20T06:18:32.664Z,5.35
2022-09-20T06:19:22.684Z,5.37
2022-09-20T06:20:12.742Z,5.35
2022-09-20T06:21:02.649Z,5.37
2022-09-20T06:21:52.625Z,5.37
2022-09-20T06:22:42.621Z,5.38
2022-09-20T06:23:32.608Z,5.40
2022-09-20T06:24:22.594Z,5.41
2022-09-20T06:25:12.583Z,5.42
2022-09-20T06:26:02.643Z,5.45
2022-09-20T06:26:52.571Z,5.47
2022-09-20T06:27:42.575Z,5.49
2022-09-20T06:28:32.548Z,5.49
2022-09-20T06:29:22.542Z,5.49
2022-09-20T06:30:12.535Z,5.51
2022-09-20T06:31:02.568Z,5.51
2022-09-20T06:31:52.755Z,5.55
2022-09-20T06:32:42.567Z,5.51
2022-09-20T06:33:32.493Z,5.51
2022-09-20T06:34:22.502Z,5.48
2022-09-20T06:35:12.501Z,5.45
2022-09-20T06:36:02.461Z,5.44
2022-09-20T06:36:52.460Z,5.45
2022-09-20T06:37:42.503Z,5.48
2022-09-20T06:38:32.442Z,5.52
2022-09-20T06:39:22.429Z,5.55
2022-09-20T06:40:12.455Z,5.52
2022-09-20T06:41:02.420Z,5.52
2022-09-20T06:41:52.409Z,5.51
2022-09-20T06:42:42.436Z,5.48
2022-09-20T06:43:32.411Z,5.47
2022-09-20T06:44:22.380Z,5.49
2022-09-20T06:45:12.396Z,5.55
2022-09-20T06:46:02.389Z,5.58
2022-09-20T06:46:52.348Z,5.58
2022-09-20T06:47:42.341Z,5.62
2022-09-20T06:48:32.337Z,5.62
2022-09-20T06:49:22.541Z,5.66
2022-09-20T06:50:12.310Z,5.66
2022-09-20T06:51:02.307Z,5.65
2022-09-20T06:51:52.299Z,5.66
2022-09-20T06:52:42.300Z,5.65
2022-09-20T06:53:32.276Z,5.66
2022-09-20T06:54:22.276Z,5.65
2022-09-20T06:55:12.287Z,5.66
2022-09-20T06:56:02.268Z,5.66
2022-09-20T06:56:52.249Z,5.65
2022-09-20T06:57:42.237Z,5.63
2022-09-20T06:58:32.240Z,5.62
2022-09-20T06:59:22.223Z,5.67
2022-09-20T07:00:12.198Z,5.69
2022-09-20T07:01:02.245Z,5.73
2022-09-20T07:01:52.247Z,5.73
2022-09-20T07:02:42.188Z,5.75
2022-09-20T07:03:32.158Z,5.77
2022-09-20T07:04:22.170Z,5.78
2022-09-20T07:05:12.178Z,5.80
2022-09-20T07:06:02.146Z,5.84
2022-09-20T07:06:52.358Z,5.84
2022-09-20T07:07:42.127Z,5.85
2022-09-20T07:08:32.136Z,5.85
2022-09-20T07:09:22.116Z,5.90
2022-09-20T07:10:12.135Z,5.96
2022-09-20T07:11:02.097Z,5.99
2022-09-20T07:11:52.073Z,6.01
2022-09-20T07:12:42.114Z,6.03
2022-09-20T07:13:32.056Z,6.05
2022-09-20T07:14:22.047Z,6.10
2022-09-20T07:15:12.075Z,6.10
2022-09-20T07:16:02.026Z,6.13
2022-09-20T07:16:52.049Z,6.16
2022-09-20T07:17:42.013Z,6.16
2022-09-20T07:18:32.034Z,6.17
2022-09-20T07:19:22.022Z,6.19
2022-09-20T07:20:12.016Z,6.20
2022-09-20T07:21:01.979Z,6.21
2022-09-20T07:21:51.963Z,6.25
2022-09-20T07:22:41.964Z,6.27
2022-09-20T07:23:31.952Z,6.25
2022-09-20T07:24:22.156Z,6.30
2022-09-20T07:25:11.953Z,6.36
2022-09-20T07:26:01.927Z,6.43
2022-09-20T07:26:51.913Z,6.51
2022-09-20T07:27:41.902Z,6.55
2022-09-20T07:28:31.919Z,6.57
2022-09-20T07:29:21.891Z,6.61
2022-09-20T07:30:11.910Z,6.63
2022-09-20T07:31:01.878Z,6.68
2022-09-20T07:31:51.913Z,6.69
2022-09-20T07:32:41.850Z,6.69
2022-09-20T07:33:31.849Z,6.73
2022-09-20T07:34:21.831Z,6.75
2022-09-20T07:35:11.843Z,6.78
2022-09-20T07:36:01.842Z,6.78
2022-09-20T07:36:51.802Z,6.78
2022-09-20T07:37:41.802Z,6.82
2022-09-20T07:38:31.788Z,6.82
2022-09-20T07:39:21.771Z,6.82
2022-09-20T07:40:11.787Z,6.82
2022-09-20T07:41:01.784Z,6.83
2022-09-20T07:41:51.773Z,6.87
2022-09-20T07:42:41.744Z,6.90
2022-09-20T07:43:31.726Z,6.91
2022-09-20T07:44:21.718Z,6.93
2022-09-20T07:45:11.768Z,6.96
2022-09-20T07:46:01.764Z,7.01
2022-09-20T07:46:51.699Z,7.05
2022-09-20T07:47:41.907Z,7.09
2022-09-20T07:48:31.673Z,7.12
2022-09-20T07:49:21.659Z,7.15
2022-09-20T07:50:11.665Z,7.21
2022-09-20T07:51:03.832Z,7.24
2022-09-20T07:51:51.639Z,7.27
2022-09-20T07:52:41.674Z,7.33
2022-09-20T07:53:31.679Z,7.37
2022-09-20T07:54:21.606Z,7.41
2022-09-20T07:55:11.610Z,7.42
2022-09-20T07:56:01.596Z,7.36
2022-09-20T07:56:51.570Z,7.39
2022-09-20T07:57:41.572Z,7.41
2022-09-20T07:58:31.559Z,7.45
2022-09-20T07:59:21.680Z,7.48
2022-09-20T08:00:11.753Z,7.51
2022-09-20T08:01:01.627Z,7.52
2022-09-20T08:01:51.580Z,7.55
2022-09-20T08:02:41.515Z,7.57
2022-09-20T08:03:31.499Z,7.57
2022-09-20T08:04:21.524Z,7.58
2022-09-20T08:05:11.736Z,7.62
2022-09-20T08:06:01.477Z,7.62
2022-09-20T08:06:51.471Z,7.63
2022-09-20T08:07:41.477Z,7.67
2022-09-20T08:08:31.467Z,7.67
2022-09-20T08:09:21.437Z,7.71
2022-09-20T08:10:11.431Z,7.73
2022-09-20T08:11:01.450Z,7.79
2022-09-20T08:11:51.486Z,7.79
2022-09-20T08:14:22.644Z,7.86
2022-09-20T08:15:12.127Z,7.88
2022-09-20T08:16:01.418Z,7.91
2022-09-20T08:16:51.423Z,7.94
2022-09-20T08:17:41.372Z,7.95
2022-09-20T08:18:31.412Z,7.99
2022-09-20T08:19:21.342Z,8.00
2022-09-20T08:20:11.318Z,8.02
2022-09-20T08:21:01.310Z,8.02
2022-09-20T08:21:51.302Z,8.04
2022-09-20T08:22:41.314Z,8.06
2022-09-20T08:23:31.307Z,7.96
2022-09-20T08:24:21.297Z,7.91
2022-09-20T08:25:11.277Z,7.89
2022-09-20T08:26:01.257Z,7.86
2022-09-20T08:26:51.247Z,7.84
2022-09-20T08:27:41.234Z,7.76
2022-09-20T08:28:31.223Z,7.67
2022-09-20T08:29:21.454Z,7.66
2022-09-20T08:30:11.226Z,7.63
2022-09-20T08:31:01.207Z,7.62
2022-09-20T08:31:51.244Z,7.58
2022-09-20T08:32:41.185Z,7.54
2022-09-20T08:33:31.181Z,7.47
2022-09-20T08:34:21.157Z,7.47
2022-09-20T08:35:11.366Z,7.47
2022-09-20T08:36:01.164Z,7.48
2022-09-20T08:36:51.147Z,7.45
2022-09-20T08:37:41.145Z,7.45
2022-09-20T08:40:12.160Z,7.54
2022-09-20T08:41:01.116Z,7.58
2022-09-20T08:41:51.094Z,7.66
2022-09-20T08:42:44.620Z,7.70
2022-09-20T08:43:31.064Z,7.76
2022-09-20T08:44:21.067Z,7.81
2022-09-20T08:45:11.358Z,7.88
2022-09-20T08:46:05.493Z,7.91
2022-09-20T08:46:51.225Z,7.95
2022-09-20T08:47:41.035Z,8.03
2022-09-20T08:48:31.005Z,8.07
2022-09-20T08:49:21.001Z,8.14
2022-09-20T08:50:11.554Z,8.18
2022-09-20T08:51:05.770Z,8.24
2022-09-20T08:51:50.956Z,8.27
2022-09-20T08:52:41.004Z,8.32
2022-09-20T08:53:30.967Z,8.39
2022-09-20T08:54:20.945Z,8.43
2022-09-20T08:55:10.946Z,8.54
2022-09-20T08:56:00.926Z,8.58
2022-09-20T08:56:50.906Z,8.64
2022-09-20T08:57:40.913Z,8.68
2022-09-20T08:58:30.961Z,8.71
2022-09-20T08:59:20.902Z,8.79
2022-09-20T09:00:10.893Z,8.85
2022-09-20T09:01:00.946Z,8.89
2022-09-20T09:01:50.845Z,8.96
2022-09-20T09:02:40.884Z,9.03
2022-09-20T09:03:30.843Z,9.13
2022-09-20T09:04:21.306Z,9.17
2022-09-20T09:05:10.851Z,9.22
2022-09-20T09:06:00.803Z,9.26
2022-09-20T09:06:50.814Z,9.31
2022-09-20T09:07:40.795Z,9.32
2022-09-20T09:08:30.782Z,9.44
2022-09-20T09:09:20.782Z,9.50
2022-09-20T09:10:10.790Z,9.55
2022-09-20T09:11:00.763Z,9.62
2022-09-20T09:11:50.749Z,9.67
2022-09-20T09:12:40.735Z,9.75
2022-09-20T09:13:30.731Z,9.83
2022-09-20T09:14:20.716Z,9.92
2022-09-20T09:15:10.730Z,9.96
2022-09-20T09:16:00.944Z,10.06
2022-09-20T09:16:50.753Z,10.14
2022-09-20T09:17:40.675Z,10.20
2022-09-20T09:18:31.694Z,10.25
2022-09-20T09:19:20.663Z,10.35
2022-09-20T09:20:10.651Z,10.44
2022-09-20T09:21:00.631Z,10.54
2022-09-20T09:21:50.661Z,10.63
2022-09-20T09:22:40.648Z,10.73
2022-09-20T09:23:30.631Z,10.84
2022-09-20T09:24:20.630Z,10.94
2022-09-20T09:25:10.663Z,11.01
2022-09-20T09:26:00.594Z,11.09
2022-09-20T09:26:50.590Z,11.19
2022-09-20T09:27:40.808Z,11.28
2022-09-20T09:28:30.568Z,11.41
2022-09-20T09:29:20.582Z,11.53
2022-09-20T09:30:10.562Z,11.63
2022-09-20T09:31:00.520Z,11.77
2022-09-20T09:31:50.615Z,11.88
2022-09-20T09:32:40.518Z,12.01
2022-09-20T09:33:30.576Z,12.12
2022-09-20T09:34:20.500Z,12.25
2022-09-20T09:35:10.507Z,12.36
2022-09-20T09:36:00.479Z,12.48
2022-09-20T09:36:50.479Z,12.56
2022-09-20T09:37:40.461Z,12.69
2022-09-20T09:38:30.460Z,12.79
2022-09-20T09:39:20.653Z,12.89
2022-09-20T09:40:10.483Z,12.95
2022-09-20T09:41:00.411Z,12.98
2022-09-20T09:41:50.409Z,13.01
2022-09-20T09:42:40.401Z,13.01
2022-09-20T09:43:30.388Z,13.04
2022-09-20T09:44:20.385Z,13.06
2022-09-20T09:45:10.408Z,13.12
2022-09-20T09:46:00.418Z,13.12
2022-09-20T09:46:50.378Z,13.14
2022-09-20T09:47:40.376Z,13.17
2022-09-20T09:48:30.340Z,13.21
2022-09-20T09:49:20.336Z,13.24
2022-09-20T09:50:10.329Z,13.25
2022-09-20T09:51:00.338Z,13.28
2022-09-20T09:51:50.309Z,13.32
2022-09-20T09:52:40.294Z,13.36
2022-09-20T09:53:30.283Z,13.36
2022-09-20T09:54:20.267Z,13.35
2022-09-20T09:55:10.278Z,13.35
2022-09-20T09:56:00.249Z,13.31
2022-09-20T09:56:50.310Z,13.22
2022-09-20T09:57:40.231Z,13.22
2022-09-20T09:58:30.229Z,13.24
2022-09-20T09:59:20.219Z,13.25
2022-09-20T10:00:16.436Z,13.27
2022-09-20T10:01:01.271Z,13.28
2022-09-20T10:01:50.340Z,13.29
2022-09-20T10:02:40.244Z,13.29
2022-09-20T10:03:30.180Z,13.29
2022-09-20T10:04:20.187Z,13.38
2022-09-20T10:05:10.163Z,13.43
2022-09-20T10:06:00.210Z,13.46
2022-09-20T10:06:52.357Z,13.48
2022-09-20T10:07:40.128Z,13.48
2022-09-20T10:08:30.137Z,13.55
2022-09-20T10:09:20.100Z,13.61
2022-09-20T10:10:10.096Z,13.65
2022-09-20T10:11:00.088Z,13.72
2022-09-20T10:11:50.079Z,13.73
2022-09-20T10:12:40.091Z,13.75
2022-09-20T10:13:30.145Z,13.81
2022-09-20T10:14:20.078Z,13.88
2022-09-20T10:15:10.060Z,13.96
2022-09-20T10:16:00.038Z,14.04
2022-09-20T10:16:50.127Z,14.09
2022-09-20T10:17:40.018Z,14.12
2022-09-20T10:18:30.081Z,14.16
2022-09-20T10:19:22.681Z,14.20
2022-09-20T10:20:09.996Z,14.24
2022-09-20T10:20:59.980Z,14.30
2022-09-20T10:21:49.993Z,14.35
2022-09-20T10:22:39.958Z,14.41
2022-09-20T10:23:58.726Z,14.48
2022-09-20T10:24:20.975Z,14.53
2022-09-20T10:25:09.936Z,14.57
2022-09-20T10:25:59.917Z,14.59
2022-09-20T10:26:49.926Z,14.56
2022-09-20T10:27:39.902Z,14.49
2022-09-20T10:28:29.914Z,14.39
2022-09-20T10:29:19.987Z,14.36
2022-09-20T10:30:09.916Z,14.35
2022-09-20T10:30:59.895Z,14.36
2022-09-20T10:31:49.864Z,14.42
2022-09-20T10:32:39.847Z,14.41
2022-09-20T10:33:29.836Z,14.41
2022-09-20T10:34:19.836Z,14.39
2022-09-20T10:35:09.838Z,14.30
2022-09-20T10:36:00.546Z,14.21
2022-09-20T10:36:49.828Z,14.16
2022-09-20T10:37:39.803Z,14.06
2022-09-20T10:38:29.791Z,14.05
2022-09-20T10:39:19.768Z,14.01
2022-09-20T10:40:09.889Z,13.98
2022-09-20T10:40:59.751Z,13.93
2022-09-20T10:41:49.948Z,13.93
2022-09-20T10:42:39.748Z,13.93
2022-09-20T10:43:29.738Z,13.96
2022-09-20T10:44:19.717Z,13.91
2022-09-20T10:45:09.717Z,13.90
2022-09-20T10:46:27.654Z,13.93
2022-09-20T10:46:50.742Z,13.96
2022-09-20T10:47:39.674Z,14.06
2022-09-20T10:48:29.693Z,14.13
2022-09-20T10:49:19.671Z,14.20
2022-09-20T10:50:09.657Z,14.29
2022-09-20T10:50:59.646Z,14.36
2022-09-20T10:51:49.640Z,14.42
2022-09-20T10:52:39.835Z,14.53
2022-09-20T10:53:29.617Z,14.63
2022-09-20T10:54:19.609Z,14.74
2022-09-20T10:55:09.622Z,14.82
2022-09-20T10:55:59.592Z,14.86
2022-09-20T10:56:49.606Z,14.90
2022-09-20T10:57:42.164Z,14.87
2022-09-20T10:58:30.616Z,14.86
2022-09-20T10:59:19.558Z,14.79
2022-09-20T11:00:09.549Z,14.60
2022-09-20T11:00:59.597Z,14.45
2022-09-20T11:01:49.558Z,14.36
2022-09-20T11:02:39.565Z,14.31
2022-09-20T11:03:29.508Z,14.35
2022-09-20T11:04:19.776Z,14.35
2022-09-20T11:05:09.507Z,14.30